ENSS

Details ICAO ENSS (VAW)
Name SVARTNES
Region Norway
Timezone Europe/Oslo (UTC+1.0)
Plans Departing 11
Arriving 9
Stats Elevation 42 ft / 13 m (AMSL)
Location 70.355031° 31.046076°
Runways 1
Magnetic Variation 15.878° E
Sunrise Unknown / Unknown
Sunset Unknown / Unknown
Advertisement - Login to hide

Runways

ID Width Length Bearing (true) Bearing (mag) Surface Threshold Offset Overrun Length
15 98 ft / 30 m 3,695 ft / 1,126 m 163.29° 147.41° Asphalt 197 ft / 60 m 0 ft / 0 m
33 98 ft / 30 m 3,695 ft / 1,126 m 343.30° 327.42° Asphalt 148 ft / 45 m 0 ft / 0 m

Map

Weather


0- 5 10 15 20 25 30 35+ Temperature / ° C

Clouds and Precipitation
Forecast for 2017-12-14 18:00 UTC. Updated 6 minutes ago

Ground ~20,000 ft ~40,000 ft Winds

METAR

ENSS 141550Z 23021KT CAVOK M00/M02 Q0984 RMK WIND 500FT 24033KT

TAF

Not found

Frequencies

Tower 122.15 MHz VARDO INFO
Warning: Do not use this data for real-world aviation or navigation. No guarantee of current accuracy is given.